Time;durP1;ratioP1;P1;durP2;ratioP2;P2;SDS_P1;SDS_P2;PMS_P1;PMS_P2;Temp;Humidity;BMP_temperature;BMP_pressure;BME280_temperature;BME280_humidity;BME280_pressure;Samples;Min_cycle;Max_cycle;Signal;HPM_P1;HPM_P2
2023/08/23 00:00:28;;;;;;;0.00;0.00;;;;;;;;;;7380011;19;20149;-68
2023/08/23 00:03:00;;;;;;;0.00;0.00;;;;;;;;;;7380482;19;20136;-68
2023/08/23 00:05:29;;;;;;;0.00;0.00;;;;;;;;;;7378805;19;20156;-68
2023/08/23 00:07:58;;;;;;;0.00;0.00;;;;;;;;;;7378718;19;20180;-68
2023/08/23 00:10:27;;;;;;;0.00;0.00;;;;;;;;;;7377783;19;20733;-68
2023/08/23 00:12:56;;;;;;;0.00;0.00;;;;;;;;;;7378332;19;20172;-68
2023/08/23 00:15:25;;;;;;;0.00;0.00;;;;;;;;;;7381793;19;20149;-68
2023/08/23 00:17:54;;;;;;;0.00;0.00;;;;;;;;;;7378518;19;20215;-68
2023/08/23 00:20:26;;;;;;;0.00;0.00;;;;;;;;;;7381147;19;20137;-69
2023/08/23 00:22:55;;;;;;;0.00;0.00;;;;;;;;;;7379451;19;20128;-68
2023/08/23 00:28:24;;;;;;;0.00;0.00;;;;;;;;;;7370930;19;20137;-68
2023/08/23 00:30:54;;;;;;;0.00;0.00;;;;;;;;;;7377644;19;20183;-68
2023/08/23 00:33:23;;;;;;;0.00;0.00;;;;;;;;;;7377488;19;20626;-69
2023/08/23 00:35:55;;;;;;;0.00;0.00;;;;;;;;;;7380108;19;20159;-69
2023/08/23 00:38:24;;;;;;;0.00;0.00;;;;;;;;;;7378408;19;20234;-68
2023/08/23 00:40:53;;;;;;;0.00;0.00;;;;;;;;;;7378924;19;20153;-69
2023/08/23 00:43:22;;;;;;;0.00;0.00;;;;;;;;;;7377670;19;20157;-68
2023/08/23 00:45:51;;;;;;;0.00;0.00;;;;;;;;;;7377651;19;20243;-68
2023/08/23 00:48:20;;;;;;;0.00;0.00;;;;;;;;;;7377917;19;20271;-68
2023/08/23 00:50:49;;;;;;;0.00;0.00;;;;;;;;;;7375505;19;20263;-68
2023/08/23 00:53:21;;;;;;;0.00;0.00;;;;;;;;;;7378323;19;20175;-68
2023/08/23 00:55:51;;;;;;;0.00;0.00;;;;;;;;;;7379492;19;20181;-68
2023/08/23 00:58:22;;;;;;;0.00;0.00;;;;;;;;;;7378299;19;20152;-68
2023/08/23 01:00:52;;;;;;;0.00;0.00;;;;;;;;;;7376069;19;20185;-68
2023/08/23 01:03:23;;;;;;;0.00;0.00;;;;;;;;;;7376888;19;20156;-69
2023/08/23 01:05:54;;;;;;;0.00;0.00;;;;;;;;;;7379214;19;20141;-69
2023/08/23 01:08:29;;;;;;;0.00;0.00;;;;;;;;;;7377138;19;20176;-69
2023/08/23 01:11:01;;;;;;;0.00;0.00;;;;;;;;;;7378425;19;20159;-69
2023/08/23 01:13:33;;;;;;;0.00;0.00;;;;;;;;;;7375740;19;20160;-68
2023/08/23 01:16:03;;;;;;;0.00;0.00;;;;;;;;;;7381557;19;20161;-68
2023/08/23 01:18:32;;;;;;;0.00;0.00;;;;;;;;;;7383913;19;20163;-68
2023/08/23 01:21:02;;;;;;;0.00;0.00;;;;;;;;;;7385026;19;20160;-69
2023/08/23 01:23:34;;;;;;;0.00;0.00;;;;;;;;;;7382389;19;20200;-68
2023/08/23 01:26:04;;;;;;;0.00;0.00;;;;;;;;;;7384356;19;20145;-68
2023/08/23 01:28:33;;;;;;;0.00;0.00;;;;;;;;;;7382526;19;20156;-68
2023/08/23 01:31:04;;;;;;;0.00;0.00;;;;;;;;;;7384497;19;20151;-68
2023/08/23 01:33:39;;;;;;;0.00;0.00;;;19.30;99.90;;;;;;7383313;19;20157;-69
2023/08/23 01:36:13;;;;;;;0.00;0.00;;;19.20;99.90;;;;;;7383974;19;20153;-68
2023/08/23 01:38:45;;;;;;;0.00;0.00;;;19.20;99.90;;;;;;7382996;19;20156;-69
2023/08/23 01:41:15;;;;;;;0.00;0.00;;;19.20;99.90;;;;;;7384554;19;20163;-69
2023/08/23 01:43:47;;;;;;;0.00;0.00;;;19.10;99.90;;;;;;7384986;19;20132;-68
2023/08/23 01:46:16;;;;;;;0.00;0.00;;;19.10;99.90;;;;;;7386301;19;20133;-68
2023/08/23 01:48:45;;;;;;;0.00;0.00;;;19.00;99.90;;;;;;7382446;19;20159;-69
2023/08/23 01:51:14;;;;;;;0.00;0.00;;;19.10;99.90;;;;;;7382666;19;20184;-68
2023/08/23 01:53:46;;;;;;;0.00;0.00;;;;;;;;;;7381570;19;20152;-68
2023/08/23 01:56:14;;;;;;;0.00;0.00;;;18.90;99.90;;;;;;7385913;19;20140;-69
2023/08/23 01:58:45;;;;;;;0.00;0.00;;;19.00;99.90;;;;;;7383453;19;20128;-68
2023/08/23 02:01:14;;;;;;;0.00;0.00;;;19.00;99.90;;;;;;7381175;19;20188;-68
2023/08/23 02:03:43;;;;;;;0.00;0.00;;;19.00;99.90;;;;;;7381954;19;20153;-68
2023/08/23 02:06:12;;;;;;;0.00;0.00;;;19.00;99.90;;;;;;7382969;19;20152;-68
2023/08/23 02:08:41;;;;;;;0.00;0.00;;;18.90;99.90;;;;;;7381204;19;20161;-68
2023/08/23 02:11:12;;;;;;;0.00;0.00;;;18.90;99.90;;;;;;7382635;19;20178;-69
2023/08/23 02:13:42;;;;;;;0.00;0.00;;;18.90;99.90;;;;;;7382319;19;20203;-68
2023/08/23 02:16:10;;;;;;;0.00;0.00;;;18.90;99.90;;;;;;7382522;19;20156;-68
2023/08/23 02:18:39;;;;;;;0.00;0.00;;;18.90;99.90;;;;;;7382348;19;20182;-68
2023/08/23 02:21:08;;;;;;;0.00;0.00;;;18.90;99.90;;;;;;7382656;19;20168;-69
2023/08/23 02:23:37;;;;;;;0.00;0.00;;;18.90;99.90;;;;;;7381319;19;20183;-68
2023/08/23 02:26:05;;;;;;;0.00;0.00;;;18.90;99.90;;;;;;7382785;19;20260;-68
2023/08/23 02:28:37;;;;;;;0.00;0.00;;;18.80;99.90;;;;;;7377604;19;20161;-69
2023/08/23 02:31:08;;;;;;;0.00;0.00;;;18.80;99.90;;;;;;7380277;19;20184;-68
2023/08/23 02:33:37;;;;;;;0.00;0.00;;;18.90;99.90;;;;;;7383096;19;20133;-68
2023/08/23 02:36:06;;;;;;;0.00;0.00;;;;;;;;;;7384461;19;20146;-68
2023/08/23 02:38:35;;;;;;;0.00;0.00;;;;;;;;;;7382891;19;20176;-68
2023/08/23 02:41:05;;;;;;;0.00;0.00;;;;;;;;;;7381259;19;20168;-68
2023/08/23 02:43:34;;;;;;;0.00;0.00;;;;;;;;;;7382496;19;20140;-68
2023/08/23 02:46:05;;;;;;;0.00;0.00;;;;;;;;;;7382026;19;20141;-68
2023/08/23 02:48:34;;;;;;;0.00;0.00;;;;;;;;;;7381220;19;20153;-68
2023/08/23 02:51:04;;;;;;;0.00;0.00;;;;;;;;;;7381761;19;20175;-68
2023/08/23 02:53:33;;;;;;;0.00;0.00;;;;;;;;;;7380817;19;20208;-68
2023/08/23 02:56:02;;;;;;;0.00;0.00;;;;;;;;;;7380624;19;20169;-68
2023/08/23 02:58:31;;;;;;;0.00;0.00;;;;;;;;;;7383352;19;20149;-69
2023/08/23 03:00:59;;;;;;;0.00;0.00;;;;;;;;;;7379768;19;20188;-69
2023/08/23 03:03:31;;;;;;;0.00;0.00;;;;;;;;;;7380750;19;20153;-68
2023/08/23 03:06:02;;;;;;;0.00;0.00;;;;;;;;;;7382852;19;20132;-68
2023/08/23 03:08:30;;;;;;;0.00;0.00;;;;;;;;;;7383747;19;20148;-68
2023/08/23 03:11:06;;;;;;;0.00;0.00;;;;;;;;;;7379960;19;20167;-68
2023/08/23 03:13:35;;;;;;;0.00;0.00;;;;;;;;;;7380586;19;20163;-68
2023/08/23 03:16:04;;;;;;;0.00;0.00;;;;;;;;;;7379453;19;20220;-68
2023/08/23 03:18:38;;;;;;;0.00;0.00;;;;;;;;;;7380853;19;20163;-69
2023/08/23 03:21:07;;;;;;;0.00;0.00;;;;;;;;;;7378353;19;20225;-69
2023/08/23 03:23:39;;;;;;;0.00;0.00;;;;;;;;;;7379145;19;20153;-69
2023/08/23 03:26:08;;;;;;;0.00;0.00;;;;;;;;;;7379494;19;20181;-69
2023/08/23 03:28:38;;;;;;;0.00;0.00;;;;;;;;;;7379185;19;20160;-69
2023/08/23 03:31:11;;;;;;;0.00;0.00;;;;;;;;;;7378195;19;20186;-69
2023/08/23 03:33:43;;;;;;;0.00;0.00;;;;;;;;;;7379004;19;20163;-69
2023/08/23 03:36:12;;;;;;;0.00;0.00;;;;;;;;;;7381634;19;20137;-69
2023/08/23 03:38:41;;;;;;;0.00;0.00;;;;;;;;;;7377796;19;20157;-69
2023/08/23 03:41:15;;;;;;;0.00;0.00;;;;;;;;;;7380529;19;20161;-69
2023/08/23 03:43:44;;;;;;;0.00;0.00;;;;;;;;;;7378496;19;20152;-68
2023/08/23 03:46:13;;;;;;;0.00;0.00;;;;;;;;;;7381430;19;20144;-69
2023/08/23 03:48:45;;;;;;;0.00;0.00;;;18.30;99.90;;;;;;7378018;19;20168;-69
2023/08/23 03:51:14;;;;;;;0.00;0.00;;;;;;;;;;7379681;19;20184;-69
2023/08/23 03:53:44;;;;;;;0.00;0.00;;;18.20;99.90;;;;;;7377684;19;20169;-69
2023/08/23 03:56:13;;;;;;;0.00;0.00;;;18.30;99.90;;;;;;7380566;19;20156;-69
2023/08/23 03:58:42;;;;;;;0.00;0.00;;;18.20;99.90;;;;;;7377914;19;20187;-69
2023/08/23 04:01:11;;;;;;;0.00;0.00;;;18.20;99.90;;;;;;7378068;19;20188;-70
2023/08/23 04:03:40;;;;;;;0.00;0.00;;;18.20;99.90;;;;;;7378788;19;20647;-69
2023/08/23 04:06:11;;;;;;;0.00;0.00;;;18.20;99.90;;;;;;7379088;19;20164;-69
2023/08/23 04:08:40;;;;;;;0.00;0.00;;;17.80;99.90;;;;;;7380215;19;20136;-69
2023/08/23 04:11:09;;;;;;;0.00;0.00;;;;;;;;;;7377448;19;20160;-69
2023/08/23 04:13:38;;;;;;;0.00;0.00;;;;;;;;;;7378775;19;20156;-69
2023/08/23 04:16:07;;;;;;;0.00;0.00;;;;;;;;;;7377727;19;20204;-69
2023/08/23 04:18:36;;;;;;;0.00;0.00;;;18.00;99.90;;;;;;7378913;19;20183;-69
2023/08/23 04:21:05;;;;;;;0.00;0.00;;;18.10;99.90;;;;;;7376082;19;20319;-69
2023/08/23 04:23:36;;;;;;;0.00;0.00;;;17.90;99.90;;;;;;7378186;19;20184;-69
2023/08/23 04:26:05;;;;;;;0.00;0.00;;;;;;;;;;7376885;19;20148;-69
2023/08/23 04:28:37;;;;;;;0.00;0.00;;;;;;;;;;7378148;19;20164;-69
2023/08/23 04:31:06;;;;;;;0.00;0.00;;;;;;;;;;7375086;19;20180;-69
2023/08/23 04:33:46;;;;;;;0.00;0.00;;;18.10;99.90;;;;;;7377048;19;20164;-69
2023/08/23 04:36:15;;;;;;;0.00;0.00;;;;;;;;;;7378950;19;20153;-69
2023/08/23 04:38:44;;;;;;;0.00;0.00;;;18.10;99.90;;;;;;7378456;19;20152;-69
2023/08/23 04:41:13;;;;;;;0.00;0.00;;;;;;;;;;7376542;19;20172;-69
2023/08/23 04:43:42;;;;;;;0.00;0.00;;;18.20;99.90;;;;;;7378155;19;20155;-69
2023/08/23 04:46:12;;;;;;;0.00;0.00;;;;;;;;;;7379016;19;20167;-69
2023/08/23 04:48:41;;;;;;;0.00;0.00;;;18.20;99.90;;;;;;7378621;19;20156;-69
2023/08/23 04:51:11;;;;;;;0.00;0.00;;;;;;;;;;7378148;19;20191;-69
2023/08/23 04:53:40;;;;;;;0.00;0.00;;;;;;;;;;7385856;19;20129;-69
2023/08/23 04:56:12;;;;;;;0.00;0.00;;;18.50;99.90;;;;;;7385140;19;20152;-69
2023/08/23 04:58:41;;;;;;;0.00;0.00;;;;;;;;;;7384984;19;20149;-69
2023/08/23 05:01:10;;;;;;;0.00;0.00;;;;;;;;;;7384524;19;20176;-69
2023/08/23 05:03:41;;;;;;;0.00;0.00;;;;;;;;;;7384501;19;20157;-68
2023/08/23 05:06:10;;;;;;;0.00;0.00;;;;;;;;;;7383780;19;20149;-69
2023/08/23 05:08:39;;;;;;;0.00;0.00;;;18.70;99.90;;;;;;7385307;19;20169;-69
2023/08/23 05:11:16;;;;;;;0.00;0.00;;;18.90;99.90;;;;;;7383058;19;20183;-69
2023/08/23 05:13:44;;;;;;;0.00;0.00;;;18.90;99.90;;;;;;7385011;19;20212;-68
2023/08/23 05:16:15;;;;;;;0.00;0.00;;;19.00;99.90;;;;;;7384097;19;20145;-69
2023/08/23 05:18:44;;;;;;;0.00;0.00;;;19.10;99.90;;;;;;7384928;19;20228;-69
2023/08/23 05:21:13;;;;;;;0.00;0.00;;;19.00;99.90;;;;;;7380939;19;20184;-69
2023/08/23 05:23:41;;;;;;;0.00;0.00;;;19.30;99.90;;;;;;7383882;19;20168;-68
2023/08/23 05:26:10;;;;;;;0.00;0.00;;;19.40;99.90;;;;;;7382435;19;20171;-68
2023/08/23 05:28:42;;;;;;;0.00;0.00;;;19.70;99.90;;;;;;7383908;19;20156;-68
2023/08/23 05:31:11;;;;;;;0.00;0.00;;;19.50;99.90;;;;;;7380062;19;20176;-68
2023/08/23 05:33:40;;;;;;;0.00;0.00;;;19.80;99.90;;;;;;7384354;19;20155;-68
2023/08/23 05:36:09;;;;;;;0.00;0.00;;;19.80;99.90;;;;;;7383309;19;20159;-69
2023/08/23 05:38:39;;;;;;;0.00;0.00;;;;;;;;;;7384067;19;20156;-68
2023/08/23 05:41:09;;;;;;;0.00;0.00;;;;;;;;;;7382824;19;20149;-69
2023/08/23 05:43:39;;;;;;;0.00;0.00;;;;;;;;;;7382934;19;20232;-69
2023/08/23 05:46:10;;;;;;;0.00;0.00;;;20.30;99.90;;;;;;7383122;19;20184;-68
2023/08/23 05:48:40;;;;;;;0.00;0.00;;;;;;;;;;7382670;19;20199;-68
2023/08/23 05:51:09;;;;;;;0.00;0.00;;;;;;;;;;7379839;19;20203;-69
2023/08/23 05:53:38;;;;;;;0.00;0.00;;;;;;;;;;7381635;19;20626;-69
2023/08/23 05:56:08;;;;;;;0.00;0.00;;;20.60;99.90;;;;;;7382707;19;20153;-69
2023/08/23 05:58:37;;;;;;;0.00;0.00;;;20.90;99.90;;;;;;7384288;19;20143;-69
2023/08/23 06:01:06;;;;;;;0.00;0.00;;;21.00;99.90;;;;;;7380731;19;20176;-69
2023/08/23 06:03:37;;;;;;;0.00;0.00;;;21.20;99.90;;;;;;7382847;19;20637;-69
2023/08/23 06:06:07;;;;;;;0.00;0.00;;;21.30;99.90;;;;;;7381916;19;20216;-69
2023/08/23 06:08:36;;;;;;;0.00;0.00;;;21.40;99.90;;;;;;7382773;19;20156;-69
2023/08/23 06:11:05;;;;;;;0.00;0.00;;;21.50;99.90;;;;;;7378754;19;20184;-69
2023/08/23 06:13:34;;;;;;;0.00;0.00;;;21.60;99.90;;;;;;7384483;19;20133;-70
2023/08/23 06:16:03;;;;;;;0.00;0.00;;;21.60;99.90;;;;;;7383229;19;20220;-69
2023/08/23 06:18:32;;;;;;;0.00;0.00;;;21.70;99.90;;;;;;7384758;19;20133;-69
2023/08/23 06:21:03;;;;;;;0.00;0.00;;;21.70;99.90;;;;;;7380070;19;20187;-68
2023/08/23 06:23:32;;;;;;;0.00;0.00;;;21.70;99.90;;;;;;7382374;19;20183;-69
2023/08/23 06:26:01;;;;;;;0.00;0.00;;;21.80;99.90;;;;;;7382176;19;20164;-69
2023/08/23 06:28:30;;;;;;;0.00;0.00;;;21.90;99.90;;;;;;7383888;19;20550;-69
2023/08/23 06:30:58;;;;;;;0.00;0.00;;;22.20;99.90;;;;;;7380929;19;20160;-69
2023/08/23 06:33:27;;;;;;;0.00;0.00;;;22.30;99.90;;;;;;7381811;19;20166;-69
2023/08/23 06:35:56;;;;;;;0.00;0.00;;;;;;;;;;7382446;19;20175;-69
2023/08/23 06:38:28;;;;;;;0.00;0.00;;;22.50;99.90;;;;;;7384058;19;20163;-69
2023/08/23 06:40:57;;;;;;;0.00;0.00;;;22.90;99.90;;;;;;7380862;19;20663;-69
2023/08/23 06:43:26;;;;;;;0.00;0.00;;;;;;;;;;7381453;19;20153;-69
2023/08/23 06:45:55;;;;;;;0.00;0.00;;;23.10;99.90;;;;;;7381711;19;20152;-69
2023/08/23 06:48:24;;;;;;;0.00;0.00;;;;;;;;;;7382131;19;20232;-69
2023/08/23 06:50:54;;;;;;;0.00;0.00;;;;;;;;;;7381561;19;20165;-69
2023/08/23 06:53:23;;;;;;;0.00;0.00;;;23.40;99.90;;;;;;7380803;19;20264;-69
2023/08/23 06:55:54;;;;;;;0.00;0.00;;;23.50;99.90;;;;;;7381231;19;20145;-69
2023/08/23 06:58:23;;;;;;;0.00;0.00;;;23.70;99.90;;;;;;7381968;19;20139;-69
2023/08/23 07:00:52;;;;;;;0.00;0.00;;;23.80;99.90;;;;;;7380457;19;20251;-70
2023/08/23 07:03:21;;;;;;;0.00;0.00;;;23.80;99.90;;;;;;7380043;19;20159;-70
2023/08/23 07:05:49;;;;;;;0.00;0.00;;;24.00;99.90;;;;;;7383506;19;20137;-70
2023/08/23 07:08:18;;;;;;;0.00;0.00;;;24.10;99.90;;;;;;7382184;19;20197;-69
2023/08/23 07:10:47;;;;;;;0.00;0.00;;;24.20;99.90;;;;;;7379577;19;20178;-69
2023/08/23 07:13:19;;;;;;;0.00;0.00;;;24.30;99.90;;;;;;7379552;19;20196;-69
2023/08/23 07:15:47;;;;;;;0.00;0.00;;;24.50;99.90;;;;;;7383334;19;20167;-70
2023/08/23 07:18:16;;;;;;;0.00;0.00;;;24.60;99.90;;;;;;7381862;19;20140;-69
2023/08/23 07:20:45;;;;;;;0.00;0.00;;;24.80;99.90;;;;;;7382250;19;20144;-66
2023/08/23 07:23:13;;;;;;;0.00;0.00;;;24.90;99.90;;;;;;7379758;19;20164;-66
2023/08/23 07:25:44;;;;;;;0.00;0.00;;;25.00;99.90;;;;;;7380298;19;20152;-66
2023/08/23 07:28:14;;;;;;;0.00;0.00;;;25.10;99.90;;;;;;7379011;19;20156;-67
2023/08/23 07:30:50;;;;;;;0.00;0.00;;;25.30;99.90;;;;;;7378738;19;20156;-67
2023/08/23 07:33:19;;;;;;;0.00;0.00;;;25.30;99.90;;;;;;7380177;19;20133;-67
2023/08/23 07:35:57;;;;;;;0.00;0.00;;;25.40;99.90;;;;;;7381601;19;20169;-67
2023/08/23 07:38:26;;;;;;;0.00;0.00;;;25.50;99.90;;;;;;7380574;19;20136;-67
2023/08/23 07:40:59;;;;;;;0.00;0.00;;;25.60;99.90;;;;;;7378995;19;20207;-67
2023/08/23 07:43:29;;;;;;;0.00;0.00;;;25.70;99.90;;;;;;7380484;19;20153;-67
2023/08/23 07:46:03;;;;;;;0.00;0.00;;;25.80;99.90;;;;;;7381438;19;20154;-68
2023/08/23 07:48:32;;;;;;;0.00;0.00;;;25.90;99.90;;;;;;7379788;19;20152;-67
2023/08/23 07:51:01;;;;;;;0.00;0.00;;;26.00;99.90;;;;;;7380544;19;20215;-67
2023/08/23 07:53:31;;;;;;;0.00;0.00;;;26.10;99.90;;;;;;7379852;19;20129;-68
2023/08/23 07:55:59;;;;;;;0.00;0.00;;;26.20;99.90;;;;;;7379421;19;20157;-67
2023/08/23 07:58:28;;;;;;;0.00;0.00;;;26.30;99.90;;;;;;7378435;19;20183;-67
2023/08/23 08:00:59;;;;;;;0.00;0.00;;;26.40;99.90;;;;;;7377682;19;20176;-67
2023/08/23 08:03:29;;;;;;;0.00;0.00;;;26.40;99.90;;;;;;7378213;19;20144;-68
2023/08/23 08:05:58;;;;;;;0.00;0.00;;;26.50;99.90;;;;;;7379213;19;20153;-67
2023/08/23 08:08:27;;;;;;;0.00;0.00;;;26.70;99.90;;;;;;7379861;19;20153;-66
2023/08/23 08:10:56;;;;;;;0.00;0.00;;;26.80;99.90;;;;;;7378267;19;20180;-67
2023/08/23 08:13:25;;;;;;;0.00;0.00;;;27.00;99.90;;;;;;7379016;19;20164;-66
2023/08/23 08:15:54;;;;;;;0.00;0.00;;;27.10;99.90;;;;;;7379427;19;20152;-67
2023/08/23 08:18:26;;;;;;;0.00;0.00;;;27.20;99.90;;;;;;7378363;19;20176;-66
2023/08/23 08:20:55;;;;;;;0.00;0.00;;;27.20;99.90;;;;;;7378789;19;20149;-67
2023/08/23 08:23:24;;;;;;;0.00;0.00;;;27.20;99.90;;;;;;7376887;19;20160;-67
2023/08/23 08:25:53;;;;;;;0.00;0.00;;;27.20;99.90;;;;;;7380155;19;20141;-67
2023/08/23 08:28:22;;;;;;;0.00;0.00;;;27.20;99.90;;;;;;7378557;19;20137;-66
2023/08/23 08:30:50;;;;;;;0.00;0.00;;;26.80;99.90;;;;;;7379035;19;20176;-67
2023/08/23 08:33:19;;;;;;;0.00;0.00;;;27.40;99.90;;;;;;7376529;19;20153;-67
2023/08/23 08:35:51;;;;;;;0.00;0.00;;;27.30;99.90;;;;;;7379573;19;20136;-66
2023/08/23 08:38:22;;;;;;;0.00;0.00;;;27.30;99.90;;;;;;7379383;19;20128;-67
2023/08/23 08:40:51;;;;;;;0.00;0.00;;;27.40;99.90;;;;;;7377946;19;20266;-67
2023/08/23 08:43:20;;;;;;;0.00;0.00;;;27.50;99.90;;;;;;7372563;19;20156;-67
2023/08/23 08:45:49;;;;;;;0.00;0.00;;;;;;;;;;7377749;19;20160;-67
2023/08/23 08:48:18;;;;;;;0.00;0.00;;;;;;;;;;7376466;19;20175;-67
2023/08/23 08:50:48;;;;;;;0.00;0.00;;;;;;;;;;7378651;19;20136;-67
2023/08/23 08:53:21;;;;;;;0.00;0.00;;;;;;;;;;7376196;19;20211;-66
2023/08/23 08:55:50;;;;;;;0.00;0.00;;;;;;;;;;7379722;19;20143;-67
2023/08/23 08:58:21;;;;;;;0.00;0.00;;;;;;;;;;7376330;19;20156;-66
2023/08/23 09:00:51;;;;;;;0.00;0.00;;;;;;;;;;7376663;19;20205;-67
2023/08/23 09:03:20;;;;;;;0.00;0.00;;;;;;;;;;7375331;19;20148;-67
2023/08/23 09:05:50;;;;;;;0.00;0.00;;;;;;;;;;7378589;19;20140;-67
2023/08/23 09:08:21;;;;;;;0.00;0.00;;;;;;;;;;7378160;19;20141;-66
2023/08/23 09:10:50;;;;;;;0.00;0.00;;;;;;;;;;7375928;19;20180;-67
2023/08/23 09:13:20;;;;;;;0.00;0.00;;;;;;;;;;7377826;19;20144;-68
2023/08/23 09:15:50;;;;;;;0.00;0.00;;;;;;;;;;7378057;19;20140;-68
2023/08/23 09:18:21;;;;;;;0.00;0.00;;;;;;;;;;7378166;19;20160;-68
2023/08/23 09:20:50;;;;;;;0.00;0.00;;;28.60;99.90;;;;;;7378004;19;20179;-68
2023/08/23 09:23:21;;;;;;;0.00;0.00;;;28.60;99.90;;;;;;7375623;19;20157;-68
2023/08/23 09:25:50;;;;;;;0.00;0.00;;;28.70;99.90;;;;;;7376686;19;20665;-68
2023/08/23 09:28:20;;;;;;;0.00;0.00;;;28.70;99.90;;;;;;7375961;19;20161;-68
2023/08/23 09:30:52;;;;;;;0.00;0.00;;;28.80;99.90;;;;;;7374568;19;20223;-68
2023/08/23 09:33:21;;;;;;;0.00;0.00;;;28.70;99.90;;;;;;7377240;19;20147;-69
2023/08/23 09:35:50;;;;;;;0.00;0.00;;;28.80;99.90;;;;;;7376964;19;20179;-68
2023/08/23 09:38:25;;;;;;;0.00;0.00;;;28.70;99.90;;;;;;7381451;19;20160;-68
2023/08/23 09:40:54;;;;;;;0.00;0.00;;;28.50;99.90;;;;;;7384475;19;20154;-69
2023/08/23 09:43:25;;;;;;;0.00;0.00;;;28.40;99.90;;;;;;7381838;19;20152;-68
2023/08/23 09:45:55;;;;;;;0.00;0.00;;;28.30;99.90;;;;;;7383572;19;20145;-68
2023/08/23 09:48:28;;;;;;;0.00;0.00;;;28.30;99.90;;;;;;7384468;19;20136;-67
2023/08/23 09:50:58;;;;;;;0.00;0.00;;;28.40;99.90;;;;;;7385018;19;20152;-68
2023/08/23 09:53:35;;;;;;;0.00;0.00;;;28.50;99.90;;;;;;7382499;19;20160;-68
2023/08/23 09:56:05;;;;;;;0.00;0.00;;;28.60;99.90;;;;;;7384270;19;20143;-68
2023/08/23 09:58:34;;;;;;;0.00;0.00;;;28.70;99.90;;;;;;7382538;19;20176;-68
2023/08/23 10:01:04;;;;;;;0.00;0.00;;;28.80;99.90;;;;;;7384450;19;20169;-67
2023/08/23 10:03:33;;;;;;;0.00;0.00;;;28.80;99.90;;;;;;7383414;19;20212;-68
2023/08/23 10:06:02;;;;;;;0.00;0.00;;;28.80;99.90;;;;;;7383449;19;20157;-67
2023/08/23 10:08:34;;;;;;;0.00;0.00;;;28.70;99.90;;;;;;7383603;19;20145;-68
2023/08/23 10:11:03;;;;;;;0.00;0.00;;;28.60;99.90;;;;;;7383486;19;20192;-68
2023/08/23 10:13:33;;;;;;;0.00;0.00;;;28.50;99.90;;;;;;7382741;19;20148;-68
2023/08/23 10:16:03;;;;;;;0.00;0.00;;;28.50;99.90;;;;;;7383115;19;20526;-69
2023/08/23 10:18:33;;;;;;;0.00;0.00;;;28.50;99.90;;;;;;7382228;19;20166;-68
2023/08/23 10:21:05;;;;;;;0.00;0.00;;;28.50;99.90;;;;;;7383092;19;20169;-68
2023/08/23 10:23:38;;;;;;;0.00;0.00;;;28.50;99.90;;;;;;7381629;19;20156;-68
2023/08/23 10:26:07;;;;;;;0.00;0.00;;;28.60;99.90;;;;;;7382003;19;20185;-68
2023/08/23 10:28:49;;;;;;;0.00;0.00;;;28.70;99.90;;;;;;7381898;19;20164;-68
2023/08/23 10:31:24;;;;;;;0.00;0.00;;;28.80;99.90;;;;;;7381636;19;20153;-68
2023/08/23 10:33:57;;;;;;;0.00;0.00;;;28.90;99.90;;;;;;7381825;19;20151;-68
2023/08/23 10:36:31;;;;;;;0.00;0.00;;;28.90;99.90;;;;;;7381023;19;20177;-69
2023/08/23 10:39:02;;;;;;;0.00;0.00;;;28.90;99.90;;;;;;7382125;19;20176;-67
2023/08/23 10:41:32;;;;;;;0.00;0.00;;;28.80;99.90;;;;;;7380576;19;20164;-68
2023/08/23 10:44:01;;;;;;;0.00;0.00;;;28.70;99.90;;;;;;7384798;19;20137;-68
2023/08/23 10:46:31;;;;;;;0.00;0.00;;;28.60;99.90;;;;;;7383413;19;20205;-68
2023/08/23 10:49:01;;;;;;;0.00;0.00;;;28.70;99.90;;;;;;7379641;19;20239;-68
2023/08/23 10:51:30;;;;;;;0.00;0.00;;;28.70;99.90;;;;;;7379615;19;20191;-68
2023/08/23 10:54:00;;;;;;;0.00;0.00;;;28.70;99.90;;;;;;7383433;19;20228;-68
2023/08/23 10:56:31;;;;;;;0.00;0.00;;;28.60;99.90;;;;;;7382526;19;20133;-68
2023/08/23 10:59:01;;;;;;;0.00;0.00;;;28.40;99.90;;;;;;7382468;19;20156;-68
2023/08/23 11:01:30;;;;;;;0.00;0.00;;;28.40;99.90;;;;;;7380311;19;20145;-68
2023/08/23 11:03:59;;;;;;;0.00;0.00;;;28.40;99.90;;;;;;7382367;19;20160;-67
2023/08/23 11:06:29;;;;;;;0.00;0.00;;;28.40;99.90;;;;;;7382433;19;20132;-69
2023/08/23 11:08:59;;;;;;;0.00;0.00;;;28.60;99.90;;;;;;7383993;19;20144;-67
2023/08/23 11:11:33;;;;;;;0.00;0.00;;;28.60;99.90;;;;;;7379137;19;20176;-68
2023/08/23 11:14:03;;;;;;;0.00;0.00;;;28.60;99.90;;;;;;7381030;19;20160;-69
2023/08/23 11:16:31;;;;;;;0.00;0.00;;;28.70;99.90;;;;;;7379507;19;20226;-69
2023/08/23 11:19:00;;;;;;;0.00;0.00;;;28.70;99.90;;;;;;7382916;19;20141;-68
2023/08/23 11:21:29;;;;;;;0.00;0.00;;;28.70;99.90;;;;;;7379040;19;20161;-68
2023/08/23 11:23:58;;;;;;;0.00;0.00;;;28.70;99.90;;;;;;7380300;19;20163;-68
2023/08/23 11:26:32;;;;;;;0.00;0.00;;;28.70;99.90;;;;;;7377294;19;20632;-69
2023/08/23 11:29:01;;;;;;;0.00;0.00;;;28.80;99.90;;;;;;7381280;19;20176;-69
2023/08/23 11:31:31;;;;;;;0.00;0.00;;;28.90;99.90;;;;;;7377765;19;20184;-68
2023/08/23 11:34:01;;;;;;;0.00;0.00;;;29.10;99.90;;;;;;7381062;19;20200;-68
2023/08/23 11:36:30;;;;;;;0.00;0.00;;;29.30;99.90;;;;;;7379276;19;20153;-69
2023/08/23 11:39:03;;;;;;;0.00;0.00;;;29.30;99.90;;;;;;7381579;19;20136;-69
2023/08/23 11:41:35;;;;;;;0.00;0.00;;;29.30;99.90;;;;;;7376723;19;20255;-68
2023/08/23 11:44:07;;;;;;;0.00;0.00;;;29.10;99.90;;;;;;7381891;19;20129;-69
2023/08/23 11:46:38;;;;;;;0.00;0.00;;;29.00;99.90;;;;;;7380072;19;20140;-68
2023/08/23 11:49:08;;;;;;;0.00;0.00;;;29.00;99.90;;;;;;7379459;19;20180;-68
2023/08/23 11:51:44;;;;;;;0.00;0.00;;;28.90;99.90;;;;;;7375641;19;20291;-68
2023/08/23 11:54:13;;;;;;;0.00;0.00;;;28.90;99.90;;;;;;7380525;19;20136;-69
2023/08/23 11:56:45;;;;;;;0.00;0.00;;;28.90;99.90;;;;;;7377969;19;20171;-68
2023/08/23 11:59:15;;;;;;;0.00;0.00;;;28.90;99.90;;;;;;7379777;19;20137;-68
2023/08/23 12:01:45;;;;;;;0.00;0.00;;;29.00;99.90;;;;;;7376647;19;20156;-68
2023/08/23 12:04:15;;;;;;;0.00;0.00;;;29.10;99.90;;;;;;7381773;19;20144;-67
2023/08/23 12:06:43;;;;;;;0.00;0.00;;;28.90;99.90;;;;;;7377713;19;20160;-68
2023/08/23 12:09:13;;;;;;;0.00;0.00;;;28.80;99.90;;;;;;7380353;19;20217;-68
2023/08/23 12:11:47;;;;;;;0.00;0.00;;;28.50;99.90;;;;;;7375590;19;20176;-68
2023/08/23 12:14:15;;;;;;;0.00;0.00;;;28.30;99.90;;;;;;7378436;19;20160;-68
2023/08/23 12:16:44;;;;;;;0.00;0.00;;;28.30;99.90;;;;;;7378127;19;20184;-68
2023/08/23 12:19:13;;;;;;;0.00;0.00;;;28.30;99.90;;;;;;7378186;19;20164;-68
2023/08/23 12:21:41;;;;;;;0.00;0.00;;;28.30;99.90;;;;;;7376488;19;20236;-68
2023/08/23 12:24:10;;;;;;;0.00;0.00;;;28.40;99.90;;;;;;7379389;19;20189;-67
2023/08/23 12:26:39;;;;;;;0.00;0.00;;;28.50;99.90;;;;;;7379099;19;20148;-68
2023/08/23 12:29:10;;;;;;;0.00;0.00;;;28.50;99.90;;;;;;7378666;19;20156;-68
2023/08/23 12:31:39;;;;;;;0.00;0.00;;;28.50;99.90;;;;;;7375942;19;20229;-68
2023/08/23 12:34:08;;;;;;;0.00;0.00;;;28.50;99.90;;;;;;7378462;19;20161;-68
2023/08/23 12:36:37;;;;;;;0.00;0.00;;;28.40;99.90;;;;;;7379356;19;20143;-68
2023/08/23 12:39:06;;;;;;;0.00;0.00;;;28.40;99.90;;;;;;7378788;19;20160;-68
2023/08/23 12:41:35;;;;;;;0.00;0.00;;;28.40;99.90;;;;;;7375229;19;20182;-69
2023/08/23 12:44:04;;;;;;;0.00;0.00;;;28.30;99.90;;;;;;7378204;19;20161;-68
2023/08/23 12:46:36;;;;;;;0.00;0.00;;;28.30;99.90;;;;;;7379842;19;20160;-68
2023/08/23 12:49:07;;;;;;;0.00;0.00;;;28.20;99.90;;;;;;7379430;19;20148;-68
2023/08/23 12:51:36;;;;;;;0.00;0.00;;;28.20;99.90;;;;;;7374406;19;20188;-67
2023/08/23 12:54:05;;;;;;;0.00;0.00;;;28.20;99.90;;;;;;7378401;19;20159;-68
2023/08/23 12:56:33;;;;;;;0.00;0.00;;;28.20;99.90;;;;;;7378661;19;20168;-68
2023/08/23 12:59:02;;;;;;;0.00;0.00;;;28.20;99.90;;;;;;7380392;19;20147;-68
2023/08/23 13:01:32;;;;;;;0.00;0.00;;;28.10;99.90;;;;;;7376010;19;20157;-68
2023/08/23 13:04:04;;;;;;;0.00;0.00;;;28.00;99.90;;;;;;7379474;19;20137;-68
2023/08/23 13:06:33;;;;;;;0.00;0.00;;;27.80;99.90;;;;;;7376188;19;20156;-68
2023/08/23 13:09:02;;;;;;;0.00;0.00;;;27.70;99.90;;;;;;7377781;19;20152;-68
2023/08/23 13:11:31;;;;;;;0.00;0.00;;;27.50;99.90;;;;;;7377690;19;20208;-68
2023/08/23 13:14:00;;;;;;;0.00;0.00;;;27.30;99.90;;;;;;7384379;19;20132;-69
2023/08/23 13:16:29;;;;;;;0.00;0.00;;;27.20;99.90;;;;;;7384276;19;20157;-68
2023/08/23 13:18:58;;;;;;;0.00;0.00;;;27.10;99.90;;;;;;7384987;19;20175;-69
2023/08/23 13:21:30;;;;;;;0.00;0.00;;;27.10;99.90;;;;;;7381735;19;20239;-68
2023/08/23 13:24:01;;;;;;;0.00;0.00;;;27.10;99.90;;;;;;7386064;19;20129;-68
2023/08/23 13:26:30;;;;;;;0.00;0.00;;;27.10;99.90;;;;;;7386098;19;20159;-67
2023/08/23 13:28:59;;;;;;;0.00;0.00;;;27.10;99.90;;;;;;7383851;19;20165;-67
2023/08/23 13:31:28;;;;;;;0.00;0.00;;;27.10;99.90;;;;;;7383021;19;20176;-68
2023/08/23 13:33:56;;;;;;;0.00;0.00;;;27.20;99.90;;;;;;7383229;19;20140;-67
2023/08/23 13:36:25;;;;;;;0.00;0.00;;;27.20;99.90;;;;;;7384542;19;20542;-68